createdAt,value
2022-08-05T00:02:50.570Z,100019.03
2022-08-05T00:06:06.426Z,100019.66
2022-08-05T00:09:19.449Z,100017.41
2022-08-05T00:12:22.797Z,100021.13
2022-08-05T00:15:55.149Z,100022.16
2022-08-05T00:18:49.766Z,100015.94
2022-08-05T00:21:54.057Z,100018.62
2022-08-05T00:24:57.059Z,100022.97
2022-08-05T00:27:59.953Z,100025.03
2022-08-05T00:31:04.735Z,100024.41
2022-08-05T00:34:54.425Z,100019.47
2022-08-05T00:37:50.650Z,100016.94
2022-08-05T00:40:59.089Z,100019.22
2022-08-05T00:44:03.592Z,100008.03
2022-08-05T00:47:06.287Z,100008.41
2022-08-05T00:50:10.054Z,100009.66
2022-08-05T00:54:00.707Z,100013.16
2022-08-05T00:56:36.228Z,100009.19
2022-08-05T00:59:44.414Z,100014.81
2022-08-05T01:02:48.248Z,100008.16
2022-08-05T01:05:54.569Z,100004.25
2022-08-05T01:08:57.860Z,100007.94
2022-08-05T01:12:17.896Z,100011.25
2022-08-05T01:15:36.340Z,100003.94
2022-08-05T01:18:48.049Z,100005.78
2022-08-05T01:22:03.426Z,100006.37
2022-08-05T01:25:39.729Z,100006.37
2022-08-05T01:28:49.769Z,100008.66
2022-08-05T01:31:59.182Z,99997.84
2022-08-05T01:35:11.365Z,100004.09
2022-08-05T01:38:36.798Z,100005.09
2022-08-05T01:41:44.385Z,100007.19
2022-08-05T01:44:54.154Z,100004.38
2022-08-05T01:48:00.897Z,100005.03
2022-08-05T01:51:11.915Z,100009.78
2022-08-05T01:54:18.004Z,100008.09
2022-08-05T01:58:10.983Z,100005.50
2022-08-05T02:00:52.155Z,100014.75
2022-08-05T02:03:57.026Z,100009.44
2022-08-05T02:07:00.480Z,100015.19
2022-08-05T02:10:08.009Z,100016.63
2022-08-05T02:13:17.832Z,100014.28
2022-08-05T02:16:39.590Z,100017.44
2022-08-05T02:19:48.428Z,100018.19
2022-08-05T02:23:02.953Z,100018.53
2022-08-05T02:26:09.558Z,100009.84
2022-08-05T02:29:24.281Z,100009.69
2022-08-05T02:32:46.845Z,100013.03
2022-08-05T02:35:58.908Z,100013.84
2022-08-05T02:39:08.783Z,100011.53
2022-08-05T02:42:12.125Z,100013.81
2022-08-05T02:45:52.239Z,100014.59
2022-08-05T02:48:55.284Z,100005.09
2022-08-05T02:52:03.966Z,100013.19
2022-08-05T02:55:10.726Z,100011.41
2022-08-05T02:58:17.598Z,100009.75
2022-08-05T03:01:27.863Z,100004.00
2022-08-05T03:04:31.005Z,100004.13
2022-08-05T03:08:01.154Z,100001.16
2022-08-05T03:11:53.554Z,100006.53
2022-08-05T03:14:20.764Z,99998.75
2022-08-05T03:17:23.920Z,99996.31
2022-08-05T03:20:27.963Z,99998.34
2022-08-05T03:23:31.866Z,99995.78
2022-08-05T03:26:38.207Z,99990.81
2022-08-05T03:29:45.535Z,99988.88
2022-08-05T03:33:06.250Z,99992.91
2022-08-05T03:36:11.924Z,99993.09
2022-08-05T03:39:20.136Z,99992.41
2022-08-05T03:42:32.901Z,99989.41
2022-08-05T03:45:57.514Z,99997.53
2022-08-05T03:49:02.212Z,99996.59
2022-08-05T03:52:48.603Z,99996.91
2022-08-05T03:56:09.364Z,99997.41
2022-08-05T03:59:07.634Z,99998.19
2022-08-05T04:02:17.281Z,99994.88
2022-08-05T04:05:23.107Z,99995.66
2022-08-05T04:08:36.499Z,99992.91
2022-08-05T04:11:50.853Z,99995.56
2022-08-05T04:14:57.731Z,99997.12
2022-08-05T04:18:09.898Z,99997.97
2022-08-05T04:22:04.953Z,99998.28
2022-08-05T04:24:43.939Z,99992.50
2022-08-05T04:27:58.206Z,99989.03
2022-08-05T04:31:02.675Z,99991.16
2022-08-05T04:34:31.189Z,99989.25
2022-08-05T04:38:02.070Z,99989.94
2022-08-05T04:40:56.766Z,99993.13
2022-08-05T04:44:02.394Z,99994.72
2022-08-05T04:47:17.007Z,99997.88
2022-08-05T04:50:37.353Z,99998.63
2022-08-05T04:53:45.792Z,100004.28
2022-08-05T04:56:49.554Z,100000.84
2022-08-05T04:59:52.063Z,100002.78
2022-08-05T05:02:57.313Z,100005.63
2022-08-05T05:06:40.163Z,100003.00
2022-08-05T05:09:26.132Z,99998.28
2022-08-05T05:12:29.247Z,99999.97
2022-08-05T05:15:56.953Z,99989.91
2022-08-05T05:19:17.730Z,99992.44
2022-08-05T05:22:24.300Z,99995.31
2022-08-05T05:25:32.572Z,99990.56
2022-08-05T05:28:45.150Z,99985.87
2022-08-05T05:31:48.269Z,99998.53
2022-08-05T05:34:52.489Z,99989.84
2022-08-05T05:38:01.571Z,99994.25
2022-08-05T05:41:07.672Z,99991.00
2022-08-05T05:44:35.715Z,99992.94
2022-08-05T05:48:06.592Z,99987.53
2022-08-05T05:50:58.728Z,99996.34
2022-08-05T05:54:18.048Z,99990.22
2022-08-05T05:57:22.434Z,99989.19
2022-08-05T06:00:27.708Z,99990.75
2022-08-05T06:04:00.511Z,99991.94
2022-08-05T06:07:01.550Z,99986.34
2022-08-05T06:10:10.200Z,99976.19
2022-08-05T06:13:13.604Z,99983.84
2022-08-05T06:16:29.109Z,99993.00
2022-08-05T06:19:35.699Z,99990.22
2022-08-05T06:22:40.442Z,99986.94
2022-08-05T06:26:12.530Z,99985.28
2022-08-05T06:29:25.104Z,99988.78
2022-08-05T06:32:31.975Z,99983.03
2022-08-05T06:36:09.339Z,99992.03
2022-08-05T06:38:57.731Z,99991.34
2022-08-05T06:42:04.105Z,99993.47
2022-08-05T06:45:08.567Z,99996.53
2022-08-05T06:48:55.389Z,99996.28
2022-08-05T06:51:35.196Z,99995.09
2022-08-05T06:54:43.620Z,99997.59
2022-08-05T06:58:03.751Z,99996.53
2022-08-05T07:01:14.313Z,99991.38
2022-08-05T07:04:23.846Z,99988.66
2022-08-05T07:07:43.327Z,99991.97
2022-08-05T07:10:52.470Z,99994.44
2022-08-05T07:14:15.529Z,99994.37
2022-08-05T07:18:01.974Z,99999.03
2022-08-05T07:20:46.527Z,99998.12
2022-08-05T07:23:50.127Z,99990.47
2022-08-05T07:26:55.331Z,99993.06
2022-08-05T07:30:25.703Z,99990.75
2022-08-05T07:33:35.209Z,99985.81
2022-08-05T07:36:40.146Z,99985.06
2022-08-05T07:40:04.399Z,99979.59
2022-08-05T07:43:20.301Z,99976.97
2022-08-05T07:46:26.410Z,99977.44
2022-08-05T07:49:29.176Z,99975.47
2022-08-05T07:52:32.203Z,99981.97
2022-08-05T07:55:44.208Z,99975.72
2022-08-05T07:58:59.250Z,99974.69
2022-08-05T08:02:03.170Z,99973.94
2022-08-05T08:05:06.830Z,99973.88
2022-08-05T08:08:23.429Z,99977.38
2022-08-05T08:11:53.478Z,99981.62
2022-08-05T08:14:52.414Z,99977.38
2022-08-05T08:17:55.545Z,99975.44
2022-08-05T08:21:09.693Z,99979.88
2022-08-05T08:24:21.067Z,99976.47
2022-08-05T08:27:47.301Z,99969.63
2022-08-05T08:30:51.046Z,99973.56
2022-08-05T08:33:53.784Z,99969.69
2022-08-05T08:37:01.717Z,99969.94
2022-08-05T08:40:08.200Z,99973.97
2022-08-05T08:45:20.442Z,99968.47
2022-08-05T08:46:37.345Z,99974.22
2022-08-05T08:50:22.901Z,99978.31
2022-08-05T08:53:12.580Z,99972.16
2022-08-05T08:56:17.369Z,99959.88
2022-08-05T08:59:21.285Z,99960.06
2022-08-05T09:02:26.765Z,99960.59
2022-08-05T09:05:38.378Z,99958.16
2022-08-05T09:08:53.307Z,99956.78
2022-08-05T09:11:59.338Z,99961.22
2022-08-05T09:15:10.620Z,99963.97
2022-08-05T09:18:15.921Z,99954.78
2022-08-05T09:22:23.040Z,99955.56
2022-08-05T09:24:58.725Z,99942.88
2022-08-05T09:28:13.040Z,99947.94
2022-08-05T09:31:44.159Z,99940.37
2022-08-05T09:34:55.048Z,99945.44
2022-08-05T09:38:12.391Z,99931.34
2022-08-05T09:41:21.010Z,99926.31
2022-08-05T09:44:44.688Z,99924.34
2022-08-05T09:47:55.827Z,99918.03
2022-08-05T09:51:14.924Z,99924.50
2022-08-05T09:54:32.683Z,99920.41
2022-08-05T09:57:44.837Z,99919.13
2022-08-05T10:01:14.833Z,99919.69
2022-08-05T10:04:18.743Z,99921.00
2022-08-05T10:08:35.030Z,99912.22
2022-08-05T10:11:35.332Z,99904.44
2022-08-05T10:14:38.026Z,99899.47
2022-08-05T10:17:54.486Z,99906.38
2022-08-05T10:21:06.110Z,99898.81
2022-08-05T10:24:15.201Z,99894.31
2022-08-05T10:27:18.563Z,99895.00
2022-08-05T10:31:21.013Z,99886.19
2022-08-05T10:33:54.463Z,99891.00
2022-08-05T10:36:58.153Z,99883.34
2022-08-05T10:40:17.786Z,99872.53
2022-08-05T10:43:45.896Z,99868.94
2022-08-05T10:46:56.544Z,99871.13
2022-08-05T10:50:32.342Z,99863.50
2022-08-05T10:53:45.116Z,99878.25
2022-08-05T10:56:52.834Z,99869.75
2022-08-05T11:00:18.241Z,99864.28
2022-08-05T11:03:27.039Z,99869.53
2022-08-05T11:06:31.333Z,99844.22
2022-08-05T11:09:51.518Z,99853.78
2022-08-05T11:13:07.538Z,99853.22
2022-08-05T11:16:23.199Z,99863.22
2022-08-05T11:20:16.927Z,99858.03
2022-08-05T11:24:04.419Z,99852.94
2022-08-05T11:27:50.925Z,99852.09
2022-08-05T11:31:06.811Z,99845.12
2022-08-05T11:34:14.721Z,99840.03
2022-08-05T11:38:28.305Z,99837.44
2022-08-05T11:41:35.021Z,99835.44
2022-08-05T11:44:53.345Z,99829.00
2022-08-05T11:47:58.806Z,99830.94
2022-08-05T11:51:02.566Z,99825.06
2022-08-05T11:54:06.788Z,99831.31
2022-08-05T11:57:25.391Z,99832.72
2022-08-05T12:00:30.583Z,99823.78
2022-08-05T12:03:56.064Z,99830.75
2022-08-05T12:07:02.124Z,99834.34
2022-08-05T12:10:11.715Z,99832.09
2022-08-05T12:13:47.642Z,99825.84
2022-08-05T12:16:45.479Z,99830.63
2022-08-05T12:20:17.035Z,99815.72
2022-08-05T12:23:15.923Z,99818.00
2022-08-05T12:26:18.477Z,99819.41
2022-08-05T12:29:26.777Z,99811.88
2022-08-05T12:32:32.286Z,99814.72
2022-08-05T12:35:37.250Z,99805.22
2022-08-05T12:38:43.150Z,99807.88
2022-08-05T12:41:46.144Z,99804.00
2022-08-05T12:44:50.550Z,99806.31
2022-08-05T12:48:01.528Z,99801.28
2022-08-05T12:52:11.235Z,99797.00
2022-08-05T12:54:46.289Z,99801.78
2022-08-05T12:58:49.788Z,99795.00
2022-08-05T13:02:02.361Z,99796.13
2022-08-05T13:04:52.547Z,99789.59
2022-08-05T13:07:59.686Z,99786.94
2022-08-05T13:11:04.337Z,99777.91
2022-08-05T13:14:36.341Z,99785.53
2022-08-05T13:17:41.311Z,99772.91
2022-08-05T13:20:45.794Z,99777.16
2022-08-05T13:23:50.652Z,99762.91
2022-08-05T13:26:54.088Z,99764.31
2022-08-05T13:30:32.526Z,99757.72
2022-08-05T13:34:24.127Z,99762.47
2022-08-05T13:36:43.883Z,99749.75
2022-08-05T13:40:16.107Z,99753.81
2022-08-05T13:43:13.847Z,99746.19
2022-08-05T13:46:50.953Z,99743.06
2022-08-05T13:49:49.140Z,99738.88
2022-08-05T13:52:52.143Z,99740.59
2022-08-05T13:55:57.642Z,99730.38
2022-08-05T13:59:06.037Z,99725.69
2022-08-05T14:02:26.554Z,99721.38
2022-08-05T14:06:24.406Z,99720.66
2022-08-05T14:08:52.276Z,99715.94
2022-08-05T14:12:04.028Z,99713.81
2022-08-05T14:16:04.794Z,99709.81
2022-08-05T14:18:45.149Z,99711.66
2022-08-05T14:22:10.278Z,99712.78
2022-08-05T14:25:19.173Z,99711.59
2022-08-05T14:28:26.917Z,99704.81
2022-08-05T14:32:03.726Z,99704.56
2022-08-05T14:34:53.967Z,99703.34
2022-08-05T14:37:59.621Z,99692.56
2022-08-05T14:41:07.495Z,99694.22
2022-08-05T14:44:20.353Z,99690.28
2022-08-05T14:48:05.767Z,99697.91
2022-08-05T14:50:47.767Z,99690.50
2022-08-05T14:54:26.903Z,99687.53
2022-08-05T14:57:15.533Z,99683.56
2022-08-05T15:00:21.457Z,99680.09
2022-08-05T15:03:33.301Z,99669.22
2022-08-05T15:06:37.035Z,99675.03
2022-08-05T15:09:52.154Z,99676.91
2022-08-05T15:13:03.677Z,99674.41
2022-08-05T15:16:07.646Z,99667.72
2022-08-05T15:19:23.931Z,99670.75
2022-08-05T15:22:28.172Z,99667.75
2022-08-05T15:25:41.192Z,99666.13
2022-08-05T15:28:56.070Z,99665.22
2022-08-05T15:32:02.309Z,99661.38
2022-08-05T15:35:10.570Z,99660.03
2022-08-05T15:38:35.374Z,99650.44
2022-08-05T15:41:58.268Z,99659.19
2022-08-05T15:45:02.042Z,99648.53
2022-08-05T15:48:05.587Z,99642.00
2022-08-05T15:51:09.527Z,99642.13
2022-08-05T15:54:15.278Z,99642.13
2022-08-05T15:57:19.765Z,99638.22
2022-08-05T16:00:26.493Z,99639.03
2022-08-05T16:03:50.291Z,99633.38
2022-08-05T16:06:56.976Z,99633.59
2022-08-05T16:10:01.655Z,99631.72
2022-08-05T16:13:05.529Z,99630.31
2022-08-05T16:16:10.786Z,99633.38
2022-08-05T16:19:25.589Z,99637.53
2022-08-05T16:22:38.357Z,99635.00
2022-08-05T16:25:43.276Z,99634.53
2022-08-05T16:28:49.577Z,99639.22
2022-08-05T16:31:56.993Z,99639.22
2022-08-05T16:35:00.591Z,99634.56
2022-08-05T16:38:15.324Z,99644.41
2022-08-05T16:42:15.214Z,99640.59
2022-08-05T16:44:54.393Z,99631.59
2022-08-05T16:48:03.026Z,99628.31
2022-08-05T16:51:09.927Z,99629.41
2022-08-05T16:54:17.163Z,99633.50
2022-08-05T16:57:30.163Z,99631.59
2022-08-05T17:00:49.632Z,99632.12
2022-08-05T17:03:52.572Z,99627.81
2022-08-05T17:07:00.884Z,99633.88
2022-08-05T17:10:11.060Z,99633.84
2022-08-05T17:13:16.807Z,99632.47
2022-08-05T17:16:33.128Z,99629.75
2022-08-05T17:19:36.859Z,99631.69
2022-08-05T17:22:39.869Z,99635.53
2022-08-05T17:25:45.820Z,99644.53
2022-08-05T17:28:53.819Z,99646.22
2022-08-05T17:31:58.985Z,99634.97
2022-08-05T17:35:02.147Z,99647.56
2022-08-05T17:38:13.414Z,99647.84
2022-08-05T17:42:19.102Z,99649.22
2022-08-05T17:44:50.458Z,99649.50
2022-08-05T17:47:56.055Z,99644.03
2022-08-05T17:50:59.912Z,99649.47
2022-08-05T17:54:04.770Z,99646.19
2022-08-05T17:57:11.904Z,99648.63
2022-08-05T18:00:16.243Z,99648.06
2022-08-05T18:03:56.296Z,99643.94
2022-08-05T18:06:42.844Z,99631.88
2022-08-05T18:10:00.313Z,99651.50
2022-08-05T18:13:15.366Z,99642.72
2022-08-05T18:16:22.201Z,99646.28
2022-08-05T18:19:26.071Z,99642.69
2022-08-05T18:22:36.275Z,99644.56
2022-08-05T18:25:57.794Z,99642.16
2022-08-05T18:29:02.850Z,99644.03
2022-08-05T18:32:07.617Z,99649.75
2022-08-05T18:35:17.032Z,99650.31
2022-08-05T18:38:26.462Z,99648.09
2022-08-05T18:41:55.680Z,99654.00
2022-08-05T18:44:56.540Z,99649.00
2022-08-05T18:47:59.557Z,99659.63
2022-08-05T18:52:04.446Z,99657.69
2022-08-05T18:54:48.717Z,99653.31
2022-08-05T18:58:03.746Z,99669.66
2022-08-05T19:01:06.871Z,99660.09
2022-08-05T19:04:23.924Z,99661.34
2022-08-05T19:07:29.694Z,99661.84
2022-08-05T19:10:45.266Z,99665.94
2022-08-05T19:14:00.999Z,99661.25
2022-08-05T19:17:06.386Z,99661.75
2022-08-05T19:20:15.083Z,99665.47
2022-08-05T19:24:04.434Z,99671.59
2022-08-05T19:26:54.070Z,99669.00
2022-08-05T19:29:58.617Z,99671.06
2022-08-05T19:33:01.632Z,99669.56
2022-08-05T19:36:08.951Z,99671.28
2022-08-05T19:39:12.205Z,99670.41
2022-08-05T19:42:34.903Z,99673.50
2022-08-05T19:45:40.347Z,99674.69
2022-08-05T19:49:00.874Z,99676.44
2022-08-05T19:52:30.222Z,99672.72
2022-08-05T19:56:13.768Z,99673.25
2022-08-05T19:58:54.514Z,99667.50
2022-08-05T20:01:57.186Z,99667.66
2022-08-05T20:05:01.088Z,99667.94
2022-08-05T20:08:07.532Z,99675.09
2022-08-05T20:11:12.165Z,99677.25
2022-08-05T20:14:26.600Z,99666.63
2022-08-05T20:17:32.449Z,99686.84
2022-08-05T20:20:43.694Z,99691.13
2022-08-05T20:23:51.221Z,99684.00
2022-08-05T20:26:55.895Z,99689.25
2022-08-05T20:30:00.167Z,99690.94
2022-08-05T20:33:03.077Z,99695.19
2022-08-05T20:36:06.345Z,99699.62
2022-08-05T20:39:13.823Z,99689.06
2022-08-05T20:42:21.742Z,99699.09
2022-08-05T20:45:24.562Z,99698.94
2022-08-05T20:48:51.296Z,99694.81
2022-08-05T20:51:55.362Z,99702.31
2022-08-05T20:55:54.821Z,99701.47
2022-08-05T20:58:29.608Z,99704.34
2022-08-05T21:01:37.583Z,99696.56
2022-08-05T21:04:41.560Z,99704.19
2022-08-05T21:07:51.927Z,99707.94
2022-08-05T21:10:58.571Z,99708.66
2022-08-05T21:14:01.755Z,99707.94
2022-08-05T21:17:05.198Z,99712.47
2022-08-05T21:20:10.483Z,99707.03
2022-08-05T21:23:14.118Z,99711.87
2022-08-05T21:26:17.068Z,99712.59
2022-08-05T21:29:20.394Z,99707.78
2022-08-05T21:32:29.285Z,99713.44
2022-08-05T21:35:55.364Z,99714.13
2022-08-05T21:38:55.634Z,99716.88
2022-08-05T21:42:01.525Z,99712.37
2022-08-05T21:45:06.291Z,99713.44
2022-08-05T21:48:13.831Z,99721.44
2022-08-05T21:52:15.445Z,99721.22
2022-08-05T21:54:41.472Z,99722.97
2022-08-05T21:57:44.612Z,99725.78
2022-08-05T22:00:51.496Z,99723.69
2022-08-05T22:03:54.796Z,99717.75
2022-08-05T22:06:58.719Z,99716.12
2022-08-05T22:10:01.917Z,99718.81
2022-08-05T22:13:09.259Z,99719.37
2022-08-05T22:16:41.657Z,99728.88
2022-08-05T22:19:57.141Z,99726.72
2022-08-05T22:24:01.969Z,99734.97
2022-08-05T22:27:10.964Z,99731.19
2022-08-05T22:30:19.441Z,99726.66
2022-08-05T22:33:55.506Z,99722.16
2022-08-05T22:36:48.190Z,99731.22
2022-08-05T22:39:51.421Z,99729.44
2022-08-05T22:42:58.513Z,99725.53
2022-08-05T22:46:05.830Z,99725.09
2022-08-05T22:50:17.673Z,99728.31
2022-08-05T22:52:36.029Z,99723.28
2022-08-05T22:55:57.267Z,99717.69
2022-08-05T22:59:04.109Z,99724.00
2022-08-05T23:02:28.867Z,99720.69
2022-08-05T23:05:36.157Z,99720.81
2022-08-05T23:08:39.331Z,99724.53
2022-08-05T23:11:46.549Z,99721.59
2022-08-05T23:14:52.305Z,99723.56
2022-08-05T23:18:00.997Z,99720.09
2022-08-05T23:21:05.783Z,99721.53
2022-08-05T23:24:12.844Z,99717.41
2022-08-05T23:27:16.666Z,99718.75
2022-08-05T23:30:27.135Z,99716.78
2022-08-05T23:34:05.471Z,99713.25
2022-08-05T23:36:57.270Z,99718.47
2022-08-05T23:40:02.285Z,99710.22
2022-08-05T23:43:24.410Z,99716.47
2022-08-05T23:46:28.897Z,99710.59
2022-08-05T23:49:35.936Z,99711.97
2022-08-05T23:52:49.486Z,99718.00
2022-08-05T23:55:53.006Z,99714.56
2022-08-05T23:58:58.721Z,99713.63
